sensor_id;sensor_type;location;lat;lon;timestamp;P1;durP1;ratioP1;P2;durP2;ratioP2
12760;SDS011;6444;49.742;6.114;2022-07-11T00:02:25;3.80;;;2.40;;
12760;SDS011;6444;49.742;6.114;2022-07-11T00:04:52;2.95;;;2.70;;
12760;SDS011;6444;49.742;6.114;2022-07-11T00:07:18;3.25;;;2.45;;
12760;SDS011;6444;49.742;6.114;2022-07-11T00:09:45;4.30;;;2.80;;
12760;SDS011;6444;49.742;6.114;2022-07-11T00:12:12;3.30;;;2.65;;
12760;SDS011;6444;49.742;6.114;2022-07-11T00:14:38;4.12;;;2.83;;
12760;SDS011;6444;49.742;6.114;2022-07-11T00:17:05;3.15;;;2.65;;
12760;SDS011;6444;49.742;6.114;2022-07-11T00:19:31;2.60;;;2.40;;
12760;SDS011;6444;49.742;6.114;2022-07-11T00:21:58;2.87;;;2.58;;
12760;SDS011;6444;49.742;6.114;2022-07-11T00:24:25;4.15;;;2.62;;
12760;SDS011;6444;49.742;6.114;2022-07-11T00:26:52;4.40;;;2.58;;
12760;SDS011;6444;49.742;6.114;2022-07-11T00:29:19;3.97;;;3.05;;
12760;SDS011;6444;49.742;6.114;2022-07-11T00:31:45;4.30;;;2.50;;
12760;SDS011;6444;49.742;6.114;2022-07-11T00:34:12;4.57;;;2.65;;
12760;SDS011;6444;49.742;6.114;2022-07-11T00:36:39;2.72;;;2.47;;
12760;SDS011;6444;49.742;6.114;2022-07-11T00:39:06;4.90;;;2.72;;
12760;SDS011;6444;49.742;6.114;2022-07-11T00:41:33;2.95;;;2.60;;
12760;SDS011;6444;49.742;6.114;2022-07-11T00:44:00;5.78;;;2.67;;
12760;SDS011;6444;49.742;6.114;2022-07-11T00:46:26;3.45;;;2.62;;
12760;SDS011;6444;49.742;6.114;2022-07-11T00:48:53;2.83;;;2.45;;
12760;SDS011;6444;49.742;6.114;2022-07-11T00:51:21;3.42;;;2.80;;
12760;SDS011;6444;49.742;6.114;2022-07-11T00:53:47;3.70;;;3.03;;
12760;SDS011;6444;49.742;6.114;2022-07-11T00:56:17;3.00;;;2.42;;
12760;SDS011;6444;49.742;6.114;2022-07-11T00:58:44;3.22;;;2.87;;
12760;SDS011;6444;49.742;6.114;2022-07-11T01:01:11;3.72;;;2.70;;
12760;SDS011;6444;49.742;6.114;2022-07-11T01:03:37;3.22;;;2.60;;
12760;SDS011;6444;49.742;6.114;2022-07-11T01:06:07;5.07;;;2.80;;
12760;SDS011;6444;49.742;6.114;2022-07-11T01:08:34;3.30;;;3.00;;
12760;SDS011;6444;49.742;6.114;2022-07-11T01:11:01;3.45;;;2.70;;
12760;SDS011;6444;49.742;6.114;2022-07-11T01:13:27;5.35;;;3.03;;
12760;SDS011;6444;49.742;6.114;2022-07-11T01:16:09;3.70;;;2.50;;
12760;SDS011;6444;49.742;6.114;2022-07-11T01:18:32;3.60;;;2.60;;
12760;SDS011;6444;49.742;6.114;2022-07-11T01:20:59;3.78;;;2.55;;
12760;SDS011;6444;49.742;6.114;2022-07-11T01:23:25;2.90;;;2.60;;
12760;SDS011;6444;49.742;6.114;2022-07-11T01:25:52;2.92;;;2.72;;
12760;SDS011;6444;49.742;6.114;2022-07-11T01:28:19;4.00;;;2.87;;
12760;SDS011;6444;49.742;6.114;2022-07-11T01:30:45;4.80;;;2.97;;
12760;SDS011;6444;49.742;6.114;2022-07-11T01:33:12;3.67;;;2.95;;
12760;SDS011;6444;49.742;6.114;2022-07-11T01:35:39;3.05;;;2.60;;
12760;SDS011;6444;49.742;6.114;2022-07-11T01:38:05;4.05;;;3.20;;
12760;SDS011;6444;49.742;6.114;2022-07-11T01:40:32;4.62;;;3.00;;
12760;SDS011;6444;49.742;6.114;2022-07-11T01:42:58;3.80;;;3.40;;
12760;SDS011;6444;49.742;6.114;2022-07-11T01:45:25;3.60;;;3.30;;
12760;SDS011;6444;49.742;6.114;2022-07-11T01:47:52;3.62;;;3.22;;
12760;SDS011;6444;49.742;6.114;2022-07-11T01:50:18;4.15;;;3.50;;
12760;SDS011;6444;49.742;6.114;2022-07-11T01:52:45;3.05;;;2.80;;
12760;SDS011;6444;49.742;6.114;2022-07-11T01:55:12;3.62;;;3.10;;
12760;SDS011;6444;49.742;6.114;2022-07-11T01:57:39;3.62;;;3.12;;
12760;SDS011;6444;49.742;6.114;2022-07-11T02:00:06;3.53;;;3.22;;
12760;SDS011;6444;49.742;6.114;2022-07-11T02:02:32;4.47;;;3.50;;
12760;SDS011;6444;49.742;6.114;2022-07-11T02:04:59;5.20;;;3.10;;
12760;SDS011;6444;49.742;6.114;2022-07-11T02:07:26;5.68;;;3.70;;
12760;SDS011;6444;49.742;6.114;2022-07-11T02:10:11;4.80;;;4.40;;
12760;SDS011;6444;49.742;6.114;2022-07-11T02:12:38;3.60;;;3.30;;
12760;SDS011;6444;49.742;6.114;2022-07-11T02:15:05;5.00;;;4.00;;
12760;SDS011;6444;49.742;6.114;2022-07-11T02:17:31;4.78;;;4.37;;
12760;SDS011;6444;49.742;6.114;2022-07-11T02:19:58;4.50;;;4.10;;
12760;SDS011;6444;49.742;6.114;2022-07-11T02:22:25;4.20;;;3.90;;
12760;SDS011;6444;49.742;6.114;2022-07-11T02:24:51;4.80;;;4.30;;
12760;SDS011;6444;49.742;6.114;2022-07-11T02:27:18;5.50;;;4.10;;
12760;SDS011;6444;49.742;6.114;2022-07-11T02:29:45;8.40;;;4.85;;
12760;SDS011;6444;49.742;6.114;2022-07-11T02:32:12;5.95;;;4.40;;
12760;SDS011;6444;49.742;6.114;2022-07-11T02:34:39;5.28;;;4.65;;
12760;SDS011;6444;49.742;6.114;2022-07-11T02:37:06;4.50;;;4.05;;
12760;SDS011;6444;49.742;6.114;2022-07-11T02:39:33;6.45;;;4.10;;
12760;SDS011;6444;49.742;6.114;2022-07-11T02:41:59;5.12;;;4.62;;
12760;SDS011;6444;49.742;6.114;2022-07-11T02:44:26;5.22;;;4.82;;
12760;SDS011;6444;49.742;6.114;2022-07-11T02:46:52;4.90;;;4.37;;
12760;SDS011;6444;49.742;6.114;2022-07-11T02:49:19;5.10;;;4.60;;
12760;SDS011;6444;49.742;6.114;2022-07-11T02:51:46;5.07;;;4.10;;
12760;SDS011;6444;49.742;6.114;2022-07-11T02:54:13;5.22;;;4.65;;
12760;SDS011;6444;49.742;6.114;2022-07-11T02:56:40;5.18;;;4.53;;
12760;SDS011;6444;49.742;6.114;2022-07-11T02:59:06;5.47;;;4.97;;
12760;SDS011;6444;49.742;6.114;2022-07-11T03:01:33;5.45;;;4.82;;
12760;SDS011;6444;49.742;6.114;2022-07-11T03:04:00;6.57;;;5.55;;
12760;SDS011;6444;49.742;6.114;2022-07-11T03:06:26;5.22;;;4.72;;
12760;SDS011;6444;49.742;6.114;2022-07-11T03:08:53;5.25;;;4.85;;
12760;SDS011;6444;49.742;6.114;2022-07-11T03:11:20;5.50;;;5.00;;
12760;SDS011;6444;49.742;6.114;2022-07-11T03:13:46;5.80;;;4.62;;
12760;SDS011;6444;49.742;6.114;2022-07-11T03:16:13;5.40;;;4.90;;
12760;SDS011;6444;49.742;6.114;2022-07-11T03:18:39;5.78;;;5.28;;
12760;SDS011;6444;49.742;6.114;2022-07-11T03:21:06;5.65;;;5.15;;
12760;SDS011;6444;49.742;6.114;2022-07-11T03:23:33;7.35;;;5.55;;
12760;SDS011;6444;49.742;6.114;2022-07-11T03:25:59;5.95;;;5.05;;
12760;SDS011;6444;49.742;6.114;2022-07-11T03:28:26;5.57;;;5.07;;
12760;SDS011;6444;49.742;6.114;2022-07-11T03:30:53;7.57;;;6.95;;
12760;SDS011;6444;49.742;6.114;2022-07-11T03:33:19;6.57;;;5.97;;
12760;SDS011;6444;49.742;6.114;2022-07-11T03:35:46;5.72;;;5.22;;
12760;SDS011;6444;49.742;6.114;2022-07-11T03:38:13;5.20;;;4.78;;
12760;SDS011;6444;49.742;6.114;2022-07-11T03:40:39;5.97;;;5.37;;
12760;SDS011;6444;49.742;6.114;2022-07-11T03:43:06;6.65;;;5.20;;
12760;SDS011;6444;49.742;6.114;2022-07-11T03:45:33;8.45;;;5.62;;
12760;SDS011;6444;49.742;6.114;2022-07-11T03:48:00;5.93;;;5.32;;
12760;SDS011;6444;49.742;6.114;2022-07-11T03:50:26;6.12;;;5.53;;
12760;SDS011;6444;49.742;6.114;2022-07-11T03:52:53;6.15;;;5.55;;
12760;SDS011;6444;49.742;6.114;2022-07-11T03:55:20;6.00;;;5.40;;
12760;SDS011;6444;49.742;6.114;2022-07-11T03:57:47;8.18;;;5.55;;
12760;SDS011;6444;49.742;6.114;2022-07-11T04:00:14;5.78;;;5.28;;
12760;SDS011;6444;49.742;6.114;2022-07-11T04:02:40;5.85;;;5.35;;
12760;SDS011;6444;49.742;6.114;2022-07-11T04:05:07;6.72;;;6.12;;
12760;SDS011;6444;49.742;6.114;2022-07-11T04:07:34;10.27;;;5.90;;
12760;SDS011;6444;49.742;6.114;2022-07-11T04:10:01;5.90;;;5.35;;
12760;SDS011;6444;49.742;6.114;2022-07-11T04:12:28;7.32;;;5.75;;
12760;SDS011;6444;49.742;6.114;2022-07-11T04:14:54;6.10;;;5.50;;
12760;SDS011;6444;49.742;6.114;2022-07-11T04:17:21;6.00;;;5.43;;
12760;SDS011;6444;49.742;6.114;2022-07-11T04:19:47;6.70;;;5.60;;
12760;SDS011;6444;49.742;6.114;2022-07-11T04:22:14;5.53;;;5.05;;
12760;SDS011;6444;49.742;6.114;2022-07-11T04:24:41;7.15;;;5.45;;
12760;SDS011;6444;49.742;6.114;2022-07-11T04:27:07;6.03;;;5.45;;
12760;SDS011;6444;49.742;6.114;2022-07-11T04:29:34;6.45;;;5.85;;
12760;SDS011;6444;49.742;6.114;2022-07-11T04:32:01;5.43;;;4.97;;
12760;SDS011;6444;49.742;6.114;2022-07-11T04:34:27;5.82;;;5.15;;
12760;SDS011;6444;49.742;6.114;2022-07-11T04:36:54;5.40;;;4.90;;
12760;SDS011;6444;49.742;6.114;2022-07-11T04:39:20;6.22;;;4.97;;
12760;SDS011;6444;49.742;6.114;2022-07-11T04:41:47;7.50;;;6.80;;
12760;SDS011;6444;49.742;6.114;2022-07-11T04:44:14;5.68;;;5.18;;
12760;SDS011;6444;49.742;6.114;2022-07-11T04:46:41;6.95;;;5.15;;
12760;SDS011;6444;49.742;6.114;2022-07-11T04:49:08;6.03;;;5.43;;
12760;SDS011;6444;49.742;6.114;2022-07-11T04:51:34;5.55;;;5.15;;
12760;SDS011;6444;49.742;6.114;2022-07-11T04:54:02;6.43;;;5.80;;
12760;SDS011;6444;49.742;6.114;2022-07-11T04:56:28;5.60;;;5.10;;
12760;SDS011;6444;49.742;6.114;2022-07-11T04:58:55;4.90;;;4.20;;
12760;SDS011;6444;49.742;6.114;2022-07-11T05:01:22;4.82;;;4.25;;
12760;SDS011;6444;49.742;6.114;2022-07-11T05:03:49;3.85;;;3.35;;
12760;SDS011;6444;49.742;6.114;2022-07-11T05:06:16;3.50;;;3.03;;
12760;SDS011;6444;49.742;6.114;2022-07-11T05:08:42;4.00;;;2.70;;
12760;SDS011;6444;49.742;6.114;2022-07-11T05:11:09;4.00;;;2.47;;
12760;SDS011;6444;49.742;6.114;2022-07-11T05:13:36;3.33;;;2.28;;
12760;SDS011;6444;49.742;6.114;2022-07-11T05:16:03;3.12;;;2.35;;
12760;SDS011;6444;49.742;6.114;2022-07-11T05:18:30;2.22;;;2.03;;
12760;SDS011;6444;49.742;6.114;2022-07-11T05:20:56;3.35;;;2.17;;
12760;SDS011;6444;49.742;6.114;2022-07-11T05:23:23;3.90;;;2.60;;
12760;SDS011;6444;49.742;6.114;2022-07-11T05:25:49;3.40;;;2.10;;
12760;SDS011;6444;49.742;6.114;2022-07-11T05:30:45;3.28;;;1.90;;
12760;SDS011;6444;49.742;6.114;2022-07-11T05:33:12;4.07;;;1.80;;
12760;SDS011;6444;49.742;6.114;2022-07-11T05:35:38;2.08;;;1.87;;
12760;SDS011;6444;49.742;6.114;2022-07-11T05:38:05;2.10;;;1.85;;
12760;SDS011;6444;49.742;6.114;2022-07-11T05:40:32;2.30;;;2.05;;
12760;SDS011;6444;49.742;6.114;2022-07-11T05:42:59;2.67;;;2.20;;
12760;SDS011;6444;49.742;6.114;2022-07-11T05:45:26;2.47;;;2.00;;
12760;SDS011;6444;49.742;6.114;2022-07-11T05:47:52;2.20;;;2.00;;
12760;SDS011;6444;49.742;6.114;2022-07-11T05:50:19;3.45;;;2.42;;
12760;SDS011;6444;49.742;6.114;2022-07-11T05:52:46;3.30;;;2.35;;
12760;SDS011;6444;49.742;6.114;2022-07-11T05:55:12;5.47;;;2.70;;
12760;SDS011;6444;49.742;6.114;2022-07-11T05:57:40;3.15;;;2.55;;
12760;SDS011;6444;49.742;6.114;2022-07-11T06:00:06;10.43;;;4.00;;
12760;SDS011;6444;49.742;6.114;2022-07-11T06:02:33;8.10;;;2.67;;
12760;SDS011;6444;49.742;6.114;2022-07-11T06:05:00;8.07;;;2.97;;
12760;SDS011;6444;49.742;6.114;2022-07-11T06:07:26;7.37;;;2.83;;
12760;SDS011;6444;49.742;6.114;2022-07-11T06:10:11;11.73;;;2.90;;
12760;SDS011;6444;49.742;6.114;2022-07-11T06:12:38;8.40;;;2.85;;
12760;SDS011;6444;49.742;6.114;2022-07-11T06:15:05;5.20;;;3.10;;
12760;SDS011;6444;49.742;6.114;2022-07-11T06:17:32;8.30;;;2.70;;
12760;SDS011;6444;49.742;6.114;2022-07-11T06:19:58;3.30;;;2.60;;
12760;SDS011;6444;49.742;6.114;2022-07-11T06:22:25;3.78;;;2.35;;
12760;SDS011;6444;49.742;6.114;2022-07-11T06:24:52;4.30;;;2.60;;
12760;SDS011;6444;49.742;6.114;2022-07-11T06:27:18;3.42;;;3.00;;
12760;SDS011;6444;49.742;6.114;2022-07-11T06:29:45;4.55;;;3.00;;
12760;SDS011;6444;49.742;6.114;2022-07-11T06:32:11;5.97;;;3.20;;
12760;SDS011;6444;49.742;6.114;2022-07-11T06:34:38;6.03;;;2.92;;
12760;SDS011;6444;49.742;6.114;2022-07-11T06:37:05;6.62;;;3.55;;
12760;SDS011;6444;49.742;6.114;2022-07-11T06:39:32;5.32;;;3.45;;
12760;SDS011;6444;49.742;6.114;2022-07-11T06:42:01;4.80;;;3.17;;
12760;SDS011;6444;49.742;6.114;2022-07-11T06:44:27;5.35;;;3.00;;
12760;SDS011;6444;49.742;6.114;2022-07-11T06:46:54;6.40;;;3.15;;
12760;SDS011;6444;49.742;6.114;2022-07-11T06:49:21;3.40;;;3.10;;
12760;SDS011;6444;49.742;6.114;2022-07-11T06:51:48;5.57;;;2.97;;
12760;SDS011;6444;49.742;6.114;2022-07-11T06:54:16;5.43;;;2.78;;
12760;SDS011;6444;49.742;6.114;2022-07-11T06:56:45;3.85;;;2.70;;
12760;SDS011;6444;49.742;6.114;2022-07-11T06:59:12;7.62;;;3.70;;
12760;SDS011;6444;49.742;6.114;2022-07-11T07:01:39;4.45;;;2.72;;
12760;SDS011;6444;49.742;6.114;2022-07-11T07:04:06;4.95;;;2.72;;
12760;SDS011;6444;49.742;6.114;2022-07-11T07:06:32;3.05;;;2.40;;
12760;SDS011;6444;49.742;6.114;2022-07-11T07:09:00;6.55;;;2.90;;
12760;SDS011;6444;49.742;6.114;2022-07-11T07:11:26;3.50;;;2.60;;
12760;SDS011;6444;49.742;6.114;2022-07-11T07:13:54;3.45;;;2.55;;
12760;SDS011;6444;49.742;6.114;2022-07-11T07:16:20;3.47;;;2.17;;
12760;SDS011;6444;49.742;6.114;2022-07-11T07:18:47;3.65;;;2.00;;
12760;SDS011;6444;49.742;6.114;2022-07-11T07:21:14;3.03;;;1.85;;
12760;SDS011;6444;49.742;6.114;2022-07-11T07:23:41;2.10;;;1.30;;
12760;SDS011;6444;49.742;6.114;2022-07-11T07:26:08;0.70;;;0.70;;
12760;SDS011;6444;49.742;6.114;2022-07-11T07:28:34;1.20;;;0.98;;
12760;SDS011;6444;49.742;6.114;2022-07-11T07:31:01;2.83;;;1.02;;
12760;SDS011;6444;49.742;6.114;2022-07-11T07:33:28;0.98;;;0.90;;
12760;SDS011;6444;49.742;6.114;2022-07-11T07:35:54;2.28;;;1.10;;
12760;SDS011;6444;49.742;6.114;2022-07-11T07:38:21;1.65;;;1.12;;
12760;SDS011;6444;49.742;6.114;2022-07-11T07:40:48;2.17;;;0.98;;
12760;SDS011;6444;49.742;6.114;2022-07-11T07:43:14;1.20;;;0.90;;
12760;SDS011;6444;49.742;6.114;2022-07-11T07:45:41;0.80;;;0.80;;
12760;SDS011;6444;49.742;6.114;2022-07-11T07:48:08;1.70;;;0.95;;
12760;SDS011;6444;49.742;6.114;2022-07-11T07:50:35;1.23;;;0.85;;
12760;SDS011;6444;49.742;6.114;2022-07-11T07:53:01;1.42;;;0.80;;
12760;SDS011;6444;49.742;6.114;2022-07-11T07:55:28;1.15;;;0.80;;
12760;SDS011;6444;49.742;6.114;2022-07-11T07:57:55;1.30;;;0.80;;
12760;SDS011;6444;49.742;6.114;2022-07-11T08:00:21;2.30;;;0.70;;
12760;SDS011;6444;49.742;6.114;2022-07-11T08:03:06;1.80;;;0.80;;
12760;SDS011;6444;49.742;6.114;2022-07-11T08:05:35;0.73;;;0.68;;
12760;SDS011;6444;49.742;6.114;2022-07-11T08:08:02;0.80;;;0.80;;
12760;SDS011;6444;49.742;6.114;2022-07-11T08:10:28;0.70;;;0.70;;
12760;SDS011;6444;49.742;6.114;2022-07-11T08:12:55;0.68;;;0.50;;
12760;SDS011;6444;49.742;6.114;2022-07-11T08:15:22;0.65;;;0.50;;
12760;SDS011;6444;49.742;6.114;2022-07-11T08:17:48;0.47;;;0.40;;
12760;SDS011;6444;49.742;6.114;2022-07-11T08:20:15;0.65;;;0.50;;
12760;SDS011;6444;49.742;6.114;2022-07-11T08:22:42;0.70;;;0.40;;
12760;SDS011;6444;49.742;6.114;2022-07-11T08:25:08;0.65;;;0.40;;
12760;SDS011;6444;49.742;6.114;2022-07-11T08:27:35;0.30;;;0.25;;
12760;SDS011;6444;49.742;6.114;2022-07-11T08:30:02;0.98;;;0.35;;
12760;SDS011;6444;49.742;6.114;2022-07-11T08:32:28;2.92;;;0.70;;
12760;SDS011;6444;49.742;6.114;2022-07-11T08:34:55;2.42;;;1.15;;
12760;SDS011;6444;49.742;6.114;2022-07-11T08:37:21;1.62;;;0.30;;
12760;SDS011;6444;49.742;6.114;2022-07-11T08:39:48;0.80;;;0.40;;
12760;SDS011;6444;49.742;6.114;2022-07-11T08:42:20;0.45;;;0.40;;
12760;SDS011;6444;49.742;6.114;2022-07-11T08:44:47;0.50;;;0.30;;
12760;SDS011;6444;49.742;6.114;2022-07-11T08:47:15;0.35;;;0.22;;
12760;SDS011;6444;49.742;6.114;2022-07-11T08:49:41;0.73;;;0.60;;
12760;SDS011;6444;49.742;6.114;2022-07-11T08:52:08;0.43;;;0.43;;
12760;SDS011;6444;49.742;6.114;2022-07-11T08:54:34;1.15;;;0.50;;
12760;SDS011;6444;49.742;6.114;2022-07-11T08:57:01;0.73;;;0.40;;
12760;SDS011;6444;49.742;6.114;2022-07-11T08:59:28;0.77;;;0.32;;
12760;SDS011;6444;49.742;6.114;2022-07-11T09:01:54;0.80;;;0.50;;
12760;SDS011;6444;49.742;6.114;2022-07-11T09:04:22;0.50;;;0.30;;
12760;SDS011;6444;49.742;6.114;2022-07-11T09:06:47;0.45;;;0.30;;
12760;SDS011;6444;49.742;6.114;2022-07-11T09:09:14;1.15;;;0.40;;
12760;SDS011;6444;49.742;6.114;2022-07-11T09:11:57;0.52;;;0.40;;
12760;SDS011;6444;49.742;6.114;2022-07-11T09:14:26;1.35;;;0.40;;
12760;SDS011;6444;49.742;6.114;2022-07-11T09:16:55;0.40;;;0.40;;
12760;SDS011;6444;49.742;6.114;2022-07-11T09:19:22;0.50;;;0.50;;
12760;SDS011;6444;49.742;6.114;2022-07-11T09:22:04;2.08;;;0.60;;
12760;SDS011;6444;49.742;6.114;2022-07-11T09:27:48;1.02;;;0.65;;
12760;SDS011;6444;49.742;6.114;2022-07-11T09:30:35;0.85;;;0.70;;
12760;SDS011;6444;49.742;6.114;2022-07-11T09:32:56;1.75;;;0.50;;
12760;SDS011;6444;49.742;6.114;2022-07-11T09:35:22;1.05;;;0.85;;
12760;SDS011;6444;49.742;6.114;2022-07-11T09:37:48;1.42;;;0.75;;
12760;SDS011;6444;49.742;6.114;2022-07-11T09:40:15;2.25;;;0.77;;
12760;SDS011;6444;49.742;6.114;2022-07-11T09:42:48;1.58;;;0.85;;
12760;SDS011;6444;49.742;6.114;2022-07-11T09:45:18;2.37;;;1.00;;
12760;SDS011;6444;49.742;6.114;2022-07-11T09:47:45;3.00;;;1.00;;
12760;SDS011;6444;49.742;6.114;2022-07-11T09:50:11;2.22;;;1.10;;
12760;SDS011;6444;49.742;6.114;2022-07-11T09:52:37;1.40;;;0.70;;
12760;SDS011;6444;49.742;6.114;2022-07-11T09:55:05;2.20;;;1.00;;
12760;SDS011;6444;49.742;6.114;2022-07-11T09:57:32;1.27;;;0.60;;
12760;SDS011;6444;49.742;6.114;2022-07-11T10:00:03;0.65;;;0.60;;
12760;SDS011;6444;49.742;6.114;2022-07-11T10:02:31;2.12;;;0.57;;
12760;SDS011;6444;49.742;6.114;2022-07-11T10:04:58;0.62;;;0.50;;
12760;SDS011;6444;49.742;6.114;2022-07-11T10:07:24;0.60;;;0.50;;
12760;SDS011;6444;49.742;6.114;2022-07-11T10:09:51;1.58;;;0.60;;
12760;SDS011;6444;49.742;6.114;2022-07-11T10:12:19;1.95;;;0.60;;
12760;SDS011;6444;49.742;6.114;2022-07-11T10:14:45;0.90;;;0.55;;
12760;SDS011;6444;49.742;6.114;2022-07-11T10:22:40;0.75;;;0.50;;
12760;SDS011;6444;49.742;6.114;2022-07-11T10:25:22;0.95;;;0.52;;
12760;SDS011;6444;49.742;6.114;2022-07-11T10:30:13;1.83;;;0.70;;
12760;SDS011;6444;49.742;6.114;2022-07-11T10:32:59;0.62;;;0.50;;
12760;SDS011;6444;49.742;6.114;2022-07-11T10:35:26;0.60;;;0.50;;
12760;SDS011;6444;49.742;6.114;2022-07-11T10:37:52;0.65;;;0.60;;
12760;SDS011;6444;49.742;6.114;2022-07-11T10:43:06;0.70;;;0.50;;
12760;SDS011;6444;49.742;6.114;2022-07-11T10:45:48;0.55;;;0.55;;
12760;SDS011;6444;49.742;6.114;2022-07-11T10:48:15;0.65;;;0.50;;
12760;SDS011;6444;49.742;6.114;2022-07-11T10:50:41;1.52;;;0.77;;
12760;SDS011;6444;49.742;6.114;2022-07-11T10:53:08;6.22;;;0.98;;
12760;SDS011;6444;49.742;6.114;2022-07-11T10:58:20;1.27;;;0.60;;
12760;SDS011;6444;49.742;6.114;2022-07-11T11:00:46;1.67;;;0.50;;
12760;SDS011;6444;49.742;6.114;2022-07-11T11:03:12;1.33;;;0.60;;
12760;SDS011;6444;49.742;6.114;2022-07-11T11:05:49;2.05;;;0.60;;
12760;SDS011;6444;49.742;6.114;2022-07-11T11:11:00;0.90;;;0.68;;
12760;SDS011;6444;49.742;6.114;2022-07-11T11:13:26;1.62;;;0.70;;
12760;SDS011;6444;49.742;6.114;2022-07-11T11:15:53;0.60;;;0.43;;
12760;SDS011;6444;49.742;6.114;2022-07-11T11:23:30;1.25;;;0.70;;
12760;SDS011;6444;49.742;6.114;2022-07-11T11:28:35;0.82;;;0.62;;
12760;SDS011;6444;49.742;6.114;2022-07-11T11:31:05;1.30;;;0.90;;
12760;SDS011;6444;49.742;6.114;2022-07-11T11:33:34;2.08;;;1.00;;
12760;SDS011;6444;49.742;6.114;2022-07-11T11:36:01;1.45;;;1.10;;
12760;SDS011;6444;49.742;6.114;2022-07-11T11:38:27;1.10;;;1.00;;
12760;SDS011;6444;49.742;6.114;2022-07-11T11:40:54;2.08;;;0.88;;
12760;SDS011;6444;49.742;6.114;2022-07-11T11:43:21;1.15;;;1.00;;
12760;SDS011;6444;49.742;6.114;2022-07-11T11:45:50;1.00;;;0.90;;
12760;SDS011;6444;49.742;6.114;2022-07-11T11:48:29;1.67;;;1.00;;
12760;SDS011;6444;49.742;6.114;2022-07-11T11:51:08;1.10;;;1.00;;
12760;SDS011;6444;49.742;6.114;2022-07-11T11:53:37;1.30;;;1.00;;
12760;SDS011;6444;49.742;6.114;2022-07-11T11:56:14;2.42;;;1.30;;
12760;SDS011;6444;49.742;6.114;2022-07-11T11:58:44;1.25;;;1.15;;
12760;SDS011;6444;49.742;6.114;2022-07-11T12:01:10;1.65;;;1.20;;
12760;SDS011;6444;49.742;6.114;2022-07-11T12:03:46;1.02;;;1.00;;
12760;SDS011;6444;49.742;6.114;2022-07-11T12:06:15;1.75;;;1.15;;
12760;SDS011;6444;49.742;6.114;2022-07-11T12:08:44;1.05;;;1.00;;
12760;SDS011;6444;49.742;6.114;2022-07-11T12:11:12;1.23;;;1.10;;
12760;SDS011;6444;49.742;6.114;2022-07-11T12:13:38;2.65;;;1.12;;
12760;SDS011;6444;49.742;6.114;2022-07-11T12:16:11;2.55;;;1.40;;
12760;SDS011;6444;49.742;6.114;2022-07-11T12:18:59;2.53;;;1.20;;
12760;SDS011;6444;49.742;6.114;2022-07-11T12:21:24;2.70;;;1.05;;
12760;SDS011;6444;49.742;6.114;2022-07-11T12:23:51;2.00;;;1.17;;
12760;SDS011;6444;49.742;6.114;2022-07-11T12:26:18;1.20;;;1.10;;
12760;SDS011;6444;49.742;6.114;2022-07-11T12:31:42;11.38;;;2.03;;
12760;SDS011;6444;49.742;6.114;2022-07-11T12:34:18;4.60;;;1.30;;
12760;SDS011;6444;49.742;6.114;2022-07-11T12:36:43;2.20;;;1.30;;
12760;SDS011;6444;49.742;6.114;2022-07-11T12:39:14;1.40;;;1.30;;
12760;SDS011;6444;49.742;6.114;2022-07-11T12:41:36;1.92;;;1.20;;
12760;SDS011;6444;49.742;6.114;2022-07-11T12:44:03;1.65;;;1.20;;
12760;SDS011;6444;49.742;6.114;2022-07-11T12:46:48;2.53;;;1.40;;
12760;SDS011;6444;49.742;6.114;2022-07-11T12:49:15;1.62;;;1.10;;
12760;SDS011;6444;49.742;6.114;2022-07-11T12:51:42;3.55;;;1.33;;
12760;SDS011;6444;49.742;6.114;2022-07-11T12:54:11;1.60;;;1.50;;
12760;SDS011;6444;49.742;6.114;2022-07-11T12:56:35;2.78;;;1.55;;
12760;SDS011;6444;49.742;6.114;2022-07-11T12:59:02;1.40;;;1.30;;
12760;SDS011;6444;49.742;6.114;2022-07-11T13:01:29;1.23;;;1.12;;
12760;SDS011;6444;49.742;6.114;2022-07-11T13:03:55;1.60;;;1.42;;
12760;SDS011;6444;49.742;6.114;2022-07-11T13:06:22;1.58;;;1.40;;
12760;SDS011;6444;49.742;6.114;2022-07-11T13:09:07;2.17;;;1.75;;
12760;SDS011;6444;49.742;6.114;2022-07-11T13:11:33;2.53;;;1.42;;
12760;SDS011;6444;49.742;6.114;2022-07-11T13:14:00;2.58;;;1.52;;
12760;SDS011;6444;49.742;6.114;2022-07-11T13:16:26;1.30;;;1.20;;
12760;SDS011;6444;49.742;6.114;2022-07-11T13:18:53;1.98;;;1.05;;
12760;SDS011;6444;49.742;6.114;2022-07-11T13:21:20;2.30;;;1.42;;
12760;SDS011;6444;49.742;6.114;2022-07-11T13:23:47;1.52;;;1.42;;
12760;SDS011;6444;49.742;6.114;2022-07-11T13:26:14;1.20;;;1.10;;
12760;SDS011;6444;49.742;6.114;2022-07-11T13:28:40;1.27;;;1.15;;
12760;SDS011;6444;49.742;6.114;2022-07-11T13:31:07;2.25;;;1.12;;
12760;SDS011;6444;49.742;6.114;2022-07-11T13:33:34;2.20;;;1.27;;
12760;SDS011;6444;49.742;6.114;2022-07-11T13:36:00;1.30;;;1.10;;
12760;SDS011;6444;49.742;6.114;2022-07-11T13:38:27;1.30;;;1.20;;
12760;SDS011;6444;49.742;6.114;2022-07-11T13:40:53;2.10;;;1.10;;
12760;SDS011;6444;49.742;6.114;2022-07-11T13:43:20;2.00;;;1.30;;
12760;SDS011;6444;49.742;6.114;2022-07-11T13:45:47;2.37;;;1.40;;
12760;SDS011;6444;49.742;6.114;2022-07-11T13:48:13;3.00;;;1.30;;
12760;SDS011;6444;49.742;6.114;2022-07-11T13:50:40;1.80;;;1.23;;
12760;SDS011;6444;49.742;6.114;2022-07-11T13:53:07;1.30;;;1.20;;
12760;SDS011;6444;49.742;6.114;2022-07-11T13:55:33;1.10;;;1.00;;
12760;SDS011;6444;49.742;6.114;2022-07-11T13:58:00;2.22;;;1.20;;
12760;SDS011;6444;49.742;6.114;2022-07-11T14:00:27;1.90;;;1.35;;
12760;SDS011;6444;49.742;6.114;2022-07-11T14:02:53;1.42;;;1.33;;
12760;SDS011;6444;49.742;6.114;2022-07-11T14:05:20;4.32;;;1.30;;
12760;SDS011;6444;49.742;6.114;2022-07-11T14:07:47;3.17;;;1.10;;
12760;SDS011;6444;49.742;6.114;2022-07-11T14:10:13;1.20;;;1.10;;
12760;SDS011;6444;49.742;6.114;2022-07-11T14:12:40;2.97;;;1.00;;
12760;SDS011;6444;49.742;6.114;2022-07-11T14:15:06;1.55;;;1.10;;
12760;SDS011;6444;49.742;6.114;2022-07-11T14:17:33;1.52;;;1.30;;
12760;SDS011;6444;49.742;6.114;2022-07-11T14:20:00;2.33;;;1.23;;
12760;SDS011;6444;49.742;6.114;2022-07-11T14:22:26;1.50;;;1.40;;
12760;SDS011;6444;49.742;6.114;2022-07-11T14:24:53;1.58;;;1.37;;
12760;SDS011;6444;49.742;6.114;2022-07-11T14:27:20;2.30;;;1.33;;
12760;SDS011;6444;49.742;6.114;2022-07-11T14:29:47;1.17;;;1.08;;
12760;SDS011;6444;49.742;6.114;2022-07-11T14:32:14;1.73;;;1.10;;
12760;SDS011;6444;49.742;6.114;2022-07-11T14:34:40;1.10;;;1.10;;
12760;SDS011;6444;49.742;6.114;2022-07-11T14:37:07;2.30;;;1.20;;
12760;SDS011;6444;49.742;6.114;2022-07-11T14:39:33;1.33;;;1.23;;
12760;SDS011;6444;49.742;6.114;2022-07-11T14:42:00;1.02;;;0.80;;
12760;SDS011;6444;49.742;6.114;2022-07-11T14:44:27;1.25;;;1.02;;
12760;SDS011;6444;49.742;6.114;2022-07-11T14:46:53;1.30;;;1.05;;
12760;SDS011;6444;49.742;6.114;2022-07-11T14:49:20;1.30;;;0.90;;
12760;SDS011;6444;49.742;6.114;2022-07-11T14:51:46;1.58;;;1.02;;
12760;SDS011;6444;49.742;6.114;2022-07-11T14:54:13;2.42;;;1.10;;
12760;SDS011;6444;49.742;6.114;2022-07-11T14:56:40;2.03;;;1.20;;
12760;SDS011;6444;49.742;6.114;2022-07-11T14:59:06;2.17;;;1.35;;
12760;SDS011;6444;49.742;6.114;2022-07-11T15:01:33;1.12;;;0.90;;
12760;SDS011;6444;49.742;6.114;2022-07-11T15:04:00;1.00;;;0.85;;
12760;SDS011;6444;49.742;6.114;2022-07-11T15:06:30;1.75;;;0.90;;
12760;SDS011;6444;49.742;6.114;2022-07-11T15:09:15;1.08;;;0.98;;
12760;SDS011;6444;49.742;6.114;2022-07-11T15:11:59;1.25;;;1.00;;
12760;SDS011;6444;49.742;6.114;2022-07-11T15:14:44;1.02;;;1.00;;
12760;SDS011;6444;49.742;6.114;2022-07-11T15:17:11;1.10;;;1.00;;
12760;SDS011;6444;49.742;6.114;2022-07-11T15:19:38;1.80;;;0.98;;
12760;SDS011;6444;49.742;6.114;2022-07-11T15:22:04;0.90;;;0.90;;
12760;SDS011;6444;49.742;6.114;2022-07-11T15:24:31;1.65;;;1.23;;
12760;SDS011;6444;49.742;6.114;2022-07-11T15:26:57;1.45;;;1.20;;
12760;SDS011;6444;49.742;6.114;2022-07-11T15:29:24;1.20;;;1.10;;
12760;SDS011;6444;49.742;6.114;2022-07-11T15:31:50;1.17;;;1.05;;
12760;SDS011;6444;49.742;6.114;2022-07-11T15:34:17;1.17;;;1.08;;
12760;SDS011;6444;49.742;6.114;2022-07-11T15:36:47;1.52;;;1.10;;